CheckWX is a tool to help pilots better visualize weather data.  It is not intended as a substitute for an official pre-flight weather briefing.

22:15:13 UTC

EPKK METAR
John Paul II International Kraków-Balice Airport
Kraków, Poland
Current

15 mins ago

EPKK 252200Z VRB01KT CAVOK 14/09 Q1014
Observed
Apr-25 @ 22:00 UTC
Wind
  • Variable at 1 KTS
Visibility
10,000+ meters
Flight Rules
VFR
Cloud Levels
  • Clear skies
Temperature
14°C / 57°F
Dewpoint
C / 48°F
Humidity
72%
Altimeter
29.94" Hg
Pressure
1013.92 hPa
Previous

45 mins ago

EPKK 252130Z VRB02KT CAVOK 14/09 Q1014
Observed
Apr-25 @ 21:30 UTC
Wind
  • Variable at 2 KTS
Visibility
10,000+ meters
Flight Rules
VFR
Cloud Levels
  • Clear skies
Temperature
14°C / 57°F
Dewpoint
C / 48°F
Humidity
72%
Altimeter
29.94" Hg
Pressure
1013.92 hPa
Previous

1 hour ago

EPKK 252100Z VRB01KT CAVOK 15/09 Q1014
Observed
Apr-25 @ 21:00 UTC
Wind
  • Variable at 1 KTS
Visibility
10,000+ meters
Flight Rules
VFR
Cloud Levels
  • Clear skies
Temperature
15°C / 59°F
Dewpoint
C / 48°F
Humidity
68%
Altimeter
29.94" Hg
Pressure
1013.92 hPa